createdAt,value
2023-01-09T00:00:39.360Z,8.02
2023-01-09T00:01:39.309Z,7.98
2023-01-09T00:02:39.297Z,7.95
2023-01-09T00:03:39.295Z,7.92
2023-01-09T00:04:39.267Z,7.92
2023-01-09T00:05:39.230Z,7.90
2023-01-09T00:06:39.235Z,7.89
2023-01-09T00:07:39.246Z,7.89
2023-01-09T00:08:39.213Z,7.89
2023-01-09T00:09:39.189Z,7.86
2023-01-09T00:10:39.202Z,7.83
2023-01-09T00:11:39.198Z,7.80
2023-01-09T00:12:39.158Z,7.75
2023-01-09T00:13:39.151Z,7.74
2023-01-09T00:14:39.146Z,7.74
2023-01-09T00:15:39.132Z,7.72
2023-01-09T00:16:39.145Z,7.71
2023-01-09T00:17:39.125Z,7.68
2023-01-09T00:18:39.096Z,7.64
2023-01-09T00:19:39.077Z,7.61
2023-01-09T00:20:39.113Z,7.61
2023-01-09T00:21:39.065Z,7.58
2023-01-09T00:22:39.056Z,7.58
2023-01-09T00:23:39.056Z,7.58
2023-01-09T00:24:39.029Z,7.60
2023-01-09T00:25:41.003Z,7.57
2023-01-09T00:26:39.021Z,7.57
2023-01-09T00:27:38.996Z,7.55
2023-01-09T00:28:38.980Z,7.53
2023-01-09T00:29:38.983Z,7.52
2023-01-09T00:30:39.039Z,7.50
2023-01-09T00:31:38.992Z,7.50
2023-01-09T00:32:38.963Z,7.50
2023-01-09T00:33:38.919Z,7.52
2023-01-09T00:34:38.909Z,7.57
2023-01-09T00:35:38.907Z,7.52
2023-01-09T00:36:38.902Z,7.49
2023-01-09T00:37:38.892Z,7.50
2023-01-09T00:38:38.880Z,7.53
2023-01-09T00:39:38.859Z,7.53
2023-01-09T00:40:38.849Z,7.52
2023-01-09T00:41:38.858Z,7.50
2023-01-09T00:42:38.824Z,7.50
2023-01-09T00:43:38.811Z,7.50
2023-01-09T00:44:38.849Z,7.48
2023-01-09T00:45:38.837Z,7.50
2023-01-09T00:46:38.799Z,7.48
2023-01-09T00:47:38.775Z,7.48
2023-01-09T00:48:38.751Z,7.48
2023-01-09T00:49:38.741Z,7.49
2023-01-09T00:50:38.763Z,7.48
2023-01-09T00:51:38.726Z,7.49
2023-01-09T00:52:38.709Z,7.49
2023-01-09T00:53:38.707Z,7.45
2023-01-09T00:54:38.692Z,7.45
2023-01-09T00:55:38.686Z,7.46
2023-01-09T00:56:38.677Z,7.49
2023-01-09T00:57:38.665Z,7.48
2023-01-09T00:58:38.666Z,7.48
2023-01-09T00:59:38.623Z,7.46
2023-01-09T01:00:38.660Z,7.46
2023-01-09T01:01:38.838Z,7.46
2023-01-09T01:02:38.664Z,7.49
2023-01-09T01:03:38.585Z,7.49
2023-01-09T01:04:38.577Z,7.49
2023-01-09T01:05:38.565Z,7.49
2023-01-09T01:06:38.572Z,7.49
2023-01-09T01:07:38.566Z,7.48
2023-01-09T01:08:38.532Z,7.48
2023-01-09T01:09:38.514Z,7.48
2023-01-09T01:10:38.537Z,7.46
2023-01-09T01:11:38.512Z,7.46
2023-01-09T01:12:38.475Z,7.45
2023-01-09T01:13:38.484Z,7.45
2023-01-09T01:14:38.461Z,7.46
2023-01-09T01:15:38.443Z,7.48
2023-01-09T01:16:38.515Z,7.48
2023-01-09T01:17:38.413Z,7.52
2023-01-09T01:18:38.449Z,7.50
2023-01-09T01:19:38.405Z,7.52
2023-01-09T01:20:38.407Z,7.50
2023-01-09T01:21:38.472Z,7.49
2023-01-09T01:22:38.392Z,7.49
2023-01-09T01:23:38.363Z,7.50
2023-01-09T01:24:38.333Z,7.49
2023-01-09T01:25:45.603Z,7.49
2023-01-09T01:26:45.624Z,7.48
2023-01-09T01:27:45.932Z,7.48
2023-01-09T01:28:45.556Z,7.46
2023-01-09T01:29:46.578Z,7.46
2023-01-09T01:30:45.652Z,7.49
2023-01-09T01:31:46.553Z,7.48
2023-01-09T01:32:45.505Z,7.46
2023-01-09T01:33:45.504Z,7.43
2023-01-09T01:34:47.767Z,7.46
2023-01-09T01:35:38.238Z,7.45
2023-01-09T01:36:38.230Z,7.45
2023-01-09T01:37:38.202Z,7.46
2023-01-09T01:38:38.183Z,7.48
2023-01-09T01:39:38.203Z,7.49
2023-01-09T01:40:38.159Z,7.50
2023-01-09T01:41:38.174Z,7.52
2023-01-09T01:42:38.172Z,7.52
2023-01-09T01:43:38.131Z,7.50
2023-01-09T01:44:38.133Z,7.48
2023-01-09T01:45:38.143Z,7.49
2023-01-09T01:46:38.105Z,7.46
2023-01-09T01:47:38.091Z,7.48
2023-01-09T01:48:38.064Z,7.48
2023-01-09T01:49:38.065Z,7.48
2023-01-09T01:50:38.060Z,7.45
2023-01-09T01:51:38.039Z,7.46
2023-01-09T01:52:38.058Z,7.45
2023-01-09T01:53:38.030Z,7.43
2023-01-09T01:54:37.996Z,7.40
2023-01-09T01:55:37.997Z,7.39
2023-01-09T01:56:37.986Z,7.37
2023-01-09T01:57:37.975Z,7.32
2023-01-09T01:58:37.964Z,7.31
2023-01-09T01:59:37.962Z,7.27
2023-01-09T02:00:37.940Z,7.24
2023-01-09T02:01:38.145Z,7.23
2023-01-09T02:02:38.016Z,7.24
2023-01-09T02:03:37.900Z,7.21
2023-01-09T02:04:37.910Z,7.17
2023-01-09T02:05:37.878Z,7.17
2023-01-09T02:06:37.874Z,7.17
2023-01-09T02:07:37.879Z,7.20
2023-01-09T02:08:37.869Z,7.21
2023-01-09T02:09:37.849Z,7.24
2023-01-09T02:10:37.845Z,7.21
2023-01-09T02:11:37.829Z,7.20
2023-01-09T02:12:37.808Z,7.20
2023-01-09T02:13:37.775Z,7.17
2023-01-09T02:14:37.782Z,7.15
2023-01-09T02:15:37.788Z,7.10
2023-01-09T02:16:37.771Z,7.06
2023-01-09T02:17:37.769Z,7.06
2023-01-09T02:18:37.742Z,7.05
2023-01-09T02:19:37.731Z,7.06
2023-01-09T02:20:37.740Z,7.07
2023-01-09T02:21:41.858Z,7.09
2023-01-09T02:22:37.688Z,7.09
2023-01-09T02:23:37.716Z,7.09
2023-01-09T02:24:37.657Z,7.07
2023-01-09T02:25:37.666Z,7.06
2023-01-09T02:26:37.653Z,7.05
2023-01-09T02:27:37.630Z,7.03
2023-01-09T02:28:37.616Z,6.98
2023-01-09T02:29:37.613Z,6.97
2023-01-09T02:30:37.640Z,6.95
2023-01-09T02:31:37.669Z,6.92
2023-01-09T02:32:37.568Z,6.92
2023-01-09T02:33:37.571Z,6.89
2023-01-09T02:34:37.548Z,6.89
2023-01-09T02:35:37.575Z,6.85
2023-01-09T02:36:37.570Z,6.80
2023-01-09T02:37:37.510Z,6.80
2023-01-09T02:38:37.505Z,6.77
2023-01-09T02:39:37.487Z,6.76
2023-01-09T02:40:37.479Z,6.77
2023-01-09T02:41:37.538Z,6.73
2023-01-09T02:42:37.544Z,6.73
2023-01-09T02:43:37.447Z,6.71
2023-01-09T02:44:37.426Z,6.64
2023-01-09T02:45:37.555Z,6.59
2023-01-09T02:46:37.439Z,6.58
2023-01-09T02:47:37.410Z,6.52
2023-01-09T02:48:37.408Z,6.46
2023-01-09T02:49:37.389Z,6.43
2023-01-09T02:50:37.403Z,6.40
2023-01-09T02:51:37.374Z,6.40
2023-01-09T02:52:37.390Z,6.40
2023-01-09T02:53:37.332Z,6.38
2023-01-09T02:54:37.311Z,6.38
2023-01-09T02:55:37.319Z,6.37
2023-01-09T02:56:37.331Z,6.36
2023-01-09T02:57:37.280Z,6.33
2023-01-09T02:58:37.313Z,6.33
2023-01-09T02:59:37.270Z,6.33
2023-01-09T03:00:37.260Z,6.30
2023-01-09T03:01:37.351Z,6.34
2023-01-09T03:02:37.279Z,6.36
2023-01-09T03:03:37.227Z,6.38
2023-01-09T03:04:37.220Z,6.38
2023-01-09T03:05:37.190Z,6.40
2023-01-09T03:06:37.199Z,6.43
2023-01-09T03:07:37.171Z,6.46
2023-01-09T03:08:37.170Z,6.49
2023-01-09T03:09:37.146Z,6.52
2023-01-09T03:10:37.142Z,6.52
2023-01-09T03:11:37.155Z,6.54
2023-01-09T03:12:37.144Z,6.55
2023-01-09T03:13:37.097Z,6.55
2023-01-09T03:14:37.104Z,6.56
2023-01-09T03:15:37.104Z,6.56
2023-01-09T03:16:37.134Z,6.54
2023-01-09T03:17:37.055Z,6.51
2023-01-09T03:18:37.080Z,6.49
2023-01-09T03:19:37.030Z,6.48
2023-01-09T03:20:37.069Z,6.48
2023-01-09T03:21:37.044Z,6.44
2023-01-09T03:22:37.001Z,6.40
2023-01-09T03:23:36.987Z,6.40
2023-01-09T03:24:36.985Z,6.38
2023-01-09T03:25:36.976Z,6.34
2023-01-09T03:26:36.972Z,6.33
2023-01-09T03:27:36.933Z,6.33
2023-01-09T03:28:36.925Z,6.31
2023-01-09T03:29:36.903Z,6.31
2023-01-09T03:30:44.161Z,6.27
2023-01-09T03:31:37.010Z,6.28
2023-01-09T03:32:44.664Z,6.22
2023-01-09T03:33:45.132Z,6.27
2023-01-09T03:34:45.412Z,6.25
2023-01-09T03:35:45.134Z,6.22
2023-01-09T03:36:44.151Z,6.22
2023-01-09T03:37:45.119Z,6.22
2023-01-09T03:38:44.060Z,6.21
2023-01-09T03:39:36.797Z,6.21
2023-01-09T03:40:36.785Z,6.18
2023-01-09T03:41:36.801Z,6.15
2023-01-09T03:42:36.771Z,6.15
2023-01-09T03:43:36.761Z,6.14
2023-01-09T03:44:36.776Z,6.08
2023-01-09T03:45:36.780Z,6.06
2023-01-09T03:46:36.734Z,6.01
2023-01-09T03:47:36.731Z,6.00
2023-01-09T03:48:36.716Z,5.97
2023-01-09T03:49:36.693Z,5.94
2023-01-09T03:50:36.700Z,5.91
2023-01-09T03:51:36.695Z,5.90
2023-01-09T03:52:36.688Z,5.86
2023-01-09T03:53:36.647Z,5.82
2023-01-09T03:54:36.643Z,5.76
2023-01-09T03:55:36.638Z,5.75
2023-01-09T03:56:36.622Z,5.71
2023-01-09T03:57:36.629Z,5.67
2023-01-09T03:58:36.591Z,5.61
2023-01-09T03:59:36.591Z,5.57
2023-01-09T04:00:36.582Z,5.58
2023-01-09T04:01:36.648Z,5.60
2023-01-09T04:02:36.551Z,5.58
2023-01-09T04:03:36.657Z,5.57
2023-01-09T04:04:37.380Z,5.60
2023-01-09T04:05:36.526Z,5.56
2023-01-09T04:06:36.531Z,5.54
2023-01-09T04:07:36.516Z,5.53
2023-01-09T04:08:36.481Z,5.49
2023-01-09T04:09:36.507Z,5.51
2023-01-09T04:10:36.469Z,5.51
2023-01-09T04:11:36.496Z,5.48
2023-01-09T04:12:36.441Z,5.53
2023-01-09T04:13:36.464Z,5.54
2023-01-09T04:14:36.411Z,5.54
2023-01-09T04:15:36.402Z,5.56
2023-01-09T04:16:36.504Z,5.57
2023-01-09T04:17:36.403Z,5.58
2023-01-09T04:18:36.386Z,5.63
2023-01-09T04:19:36.373Z,5.63
2023-01-09T04:20:36.364Z,5.60
2023-01-09T04:21:36.380Z,5.60
2023-01-09T04:22:36.331Z,5.57
2023-01-09T04:23:36.333Z,5.53
2023-01-09T04:24:36.317Z,5.54
2023-01-09T04:25:36.295Z,5.56
2023-01-09T04:26:36.327Z,5.54
2023-01-09T04:27:36.308Z,5.53
2023-01-09T04:28:36.258Z,5.51
2023-01-09T04:29:36.287Z,5.48
2023-01-09T04:30:36.237Z,5.46
2023-01-09T04:31:36.304Z,5.46
2023-01-09T04:32:36.265Z,5.43
2023-01-09T04:33:36.211Z,5.40
2023-01-09T04:34:36.191Z,5.42
2023-01-09T04:35:36.203Z,5.45
2023-01-09T04:36:36.210Z,5.43
2023-01-09T04:37:36.172Z,5.40
2023-01-09T04:38:36.153Z,5.38
2023-01-09T04:39:36.151Z,5.36
2023-01-09T04:40:36.129Z,5.36
2023-01-09T04:41:36.152Z,5.36
2023-01-09T04:42:36.114Z,5.39
2023-01-09T04:43:36.096Z,5.42
2023-01-09T04:44:36.094Z,5.48
2023-01-09T04:45:36.141Z,5.49
2023-01-09T04:46:36.082Z,5.54
2023-01-09T04:47:36.046Z,5.58
2023-01-09T04:48:36.046Z,5.63
2023-01-09T04:49:36.032Z,5.67
2023-01-09T04:50:36.024Z,5.74
2023-01-09T04:51:36.028Z,5.76
2023-01-09T04:52:38.787Z,5.81
2023-01-09T04:53:35.987Z,5.83
2023-01-09T04:54:35.994Z,5.86
2023-01-09T04:55:35.966Z,5.89
2023-01-09T04:56:35.976Z,5.91
2023-01-09T04:57:35.959Z,5.94
2023-01-09T04:58:35.945Z,5.97
2023-01-09T04:59:35.919Z,6.00
2023-01-09T05:00:35.929Z,6.01
2023-01-09T05:01:36.081Z,6.03
2023-01-09T05:02:35.885Z,6.08
2023-01-09T05:03:35.879Z,6.09
2023-01-09T05:04:35.921Z,6.06
2023-01-09T05:05:35.857Z,6.09
2023-01-09T05:06:35.871Z,6.11
2023-01-09T05:07:35.843Z,6.14
2023-01-09T05:08:35.826Z,6.17
2023-01-09T05:09:35.825Z,6.21
2023-01-09T05:10:35.810Z,6.22
2023-01-09T05:11:35.828Z,6.28
2023-01-09T05:12:35.788Z,6.34
2023-01-09T05:13:35.764Z,6.40
2023-01-09T05:14:35.769Z,6.43
2023-01-09T05:15:35.745Z,6.48
2023-01-09T05:16:35.780Z,6.52
2023-01-09T05:17:35.740Z,6.55
2023-01-09T05:18:35.748Z,6.55
2023-01-09T05:19:35.699Z,6.58
2023-01-09T05:20:35.701Z,6.61
2023-01-09T05:21:35.703Z,6.61
2023-01-09T05:22:35.658Z,6.64
2023-01-09T05:23:35.660Z,6.67
2023-01-09T05:24:35.667Z,6.70
2023-01-09T05:25:35.634Z,6.69
2023-01-09T05:26:35.665Z,6.71
2023-01-09T05:27:35.630Z,6.70
2023-01-09T05:28:35.616Z,6.73
2023-01-09T05:29:35.585Z,6.71
2023-01-09T05:30:35.577Z,6.69
2023-01-09T05:31:35.622Z,6.66
2023-01-09T05:32:35.547Z,6.64
2023-01-09T05:33:35.537Z,6.62
2023-01-09T05:34:42.819Z,6.61
2023-01-09T05:35:35.525Z,6.61
2023-01-09T05:36:42.756Z,6.59
2023-01-09T05:37:42.746Z,6.59
2023-01-09T05:38:43.121Z,6.59
2023-01-09T05:39:44.012Z,6.56
2023-01-09T05:40:40.278Z,6.58
2023-01-09T05:42:47.725Z,6.56
2023-01-09T05:43:54.909Z,6.54
2023-01-09T05:44:55.952Z,6.54
2023-01-09T05:45:47.648Z,6.52
2023-01-09T05:46:47.642Z,6.51
2023-01-09T05:47:47.613Z,6.52
2023-01-09T05:48:47.588Z,6.49
2023-01-09T05:49:47.622Z,6.44
2023-01-09T05:50:47.582Z,6.46
2023-01-09T05:51:47.570Z,6.48
2023-01-09T05:52:47.550Z,6.46
2023-01-09T05:53:47.553Z,6.44
2023-01-09T05:54:47.544Z,6.44
2023-01-09T05:55:47.512Z,6.46
2023-01-09T05:56:47.523Z,6.44
2023-01-09T05:57:47.504Z,6.48
2023-01-09T05:58:47.498Z,6.52
2023-01-09T05:59:47.475Z,6.55
2023-01-09T06:00:47.489Z,6.58
2023-01-09T06:01:47.519Z,6.61
2023-01-09T06:02:48.310Z,6.64
2023-01-09T06:03:47.423Z,6.70
2023-01-09T06:04:47.421Z,6.73
2023-01-09T06:05:47.393Z,6.73
2023-01-09T06:06:47.429Z,6.76
2023-01-09T06:07:47.391Z,6.80
2023-01-09T06:08:47.382Z,6.79
2023-01-09T06:09:47.375Z,6.79
2023-01-09T06:10:47.377Z,6.80
2023-01-09T06:11:47.366Z,6.84
2023-01-09T06:12:47.329Z,6.84
2023-01-09T06:13:47.325Z,6.84
2023-01-09T06:14:47.302Z,6.84
2023-01-09T06:15:47.323Z,6.81
2023-01-09T06:16:47.295Z,6.80
2023-01-09T06:17:47.312Z,6.79
2023-01-09T06:18:47.252Z,6.79
2023-01-09T06:19:47.257Z,6.79
2023-01-09T06:20:47.234Z,6.77
2023-01-09T06:21:47.241Z,6.76
2023-01-09T06:22:47.213Z,6.76
2023-01-09T06:23:47.198Z,6.76
2023-01-09T06:24:47.193Z,6.79
2023-01-09T06:25:47.204Z,6.81
2023-01-09T06:26:47.155Z,6.85
2023-01-09T06:27:47.152Z,6.87
2023-01-09T06:28:47.142Z,6.87
2023-01-09T06:29:47.138Z,6.87
2023-01-09T06:30:47.176Z,6.87
2023-01-09T06:31:47.113Z,6.88
2023-01-09T06:32:47.108Z,6.88
2023-01-09T06:33:47.077Z,6.91
2023-01-09T06:34:47.066Z,6.94
2023-01-09T06:35:47.089Z,6.95
2023-01-09T06:36:47.787Z,6.97
2023-01-09T06:37:47.046Z,6.99
2023-01-09T06:38:47.037Z,7.02
2023-01-09T06:39:47.014Z,7.02
2023-01-09T06:40:47.001Z,7.03
2023-01-09T06:41:48.500Z,7.06
2023-01-09T06:42:46.981Z,7.06
2023-01-09T06:43:46.968Z,7.07
2023-01-09T06:44:46.975Z,7.09
2023-01-09T06:45:46.949Z,7.10
2023-01-09T06:46:46.959Z,7.10
2023-01-09T06:47:46.932Z,7.12
2023-01-09T06:48:46.920Z,7.15
2023-01-09T06:49:46.903Z,7.13
2023-01-09T06:50:46.918Z,7.15
2023-01-09T06:51:46.910Z,7.16
2023-01-09T06:52:46.859Z,7.16
2023-01-09T06:53:46.875Z,7.20
2023-01-09T06:54:46.846Z,7.17
2023-01-09T06:55:46.839Z,7.21
2023-01-09T06:56:46.840Z,7.21
2023-01-09T06:57:46.816Z,7.23
2023-01-09T06:58:46.797Z,7.24
2023-01-09T06:59:46.769Z,7.27
2023-01-09T07:00:46.788Z,7.28
2023-01-09T07:01:46.837Z,7.28
2023-01-09T07:02:46.781Z,7.31
2023-01-09T07:03:46.784Z,7.31
2023-01-09T07:04:46.730Z,7.31
2023-01-09T07:05:46.749Z,7.32
2023-01-09T07:06:46.753Z,7.32
2023-01-09T07:07:46.699Z,7.34
2023-01-09T07:08:47.888Z,7.35
2023-01-09T07:09:46.751Z,7.37
2023-01-09T07:10:46.690Z,7.35
2023-01-09T07:11:46.642Z,7.37
2023-01-09T07:12:46.648Z,7.39
2023-01-09T07:13:46.676Z,7.39
2023-01-09T07:14:46.623Z,7.39
2023-01-09T07:15:46.621Z,7.39
2023-01-09T07:16:46.639Z,7.40
2023-01-09T07:17:46.570Z,7.39
2023-01-09T07:18:46.590Z,7.39
2023-01-09T07:19:46.574Z,7.39
2023-01-09T07:20:46.529Z,7.40
2023-01-09T07:21:46.542Z,7.40
2023-01-09T07:22:46.580Z,7.39
2023-01-09T07:23:46.524Z,7.42
2023-01-09T07:24:46.490Z,7.42
2023-01-09T07:25:46.525Z,7.42
2023-01-09T07:26:46.499Z,7.43
2023-01-09T07:27:46.504Z,7.45
2023-01-09T07:28:46.641Z,7.43
2023-01-09T07:29:47.241Z,7.46
2023-01-09T07:30:46.446Z,7.48
2023-01-09T07:31:46.482Z,7.48
2023-01-09T07:32:46.512Z,7.49
2023-01-09T07:33:46.403Z,7.50
2023-01-09T07:34:46.398Z,7.50
2023-01-09T07:35:46.425Z,7.52
2023-01-09T07:36:46.362Z,7.52
2023-01-09T07:37:46.334Z,7.53
2023-01-09T07:38:46.337Z,7.53
2023-01-09T07:39:46.312Z,7.52
2023-01-09T07:40:46.303Z,7.50
2023-01-09T07:41:46.331Z,7.50
2023-01-09T07:42:46.273Z,7.50
2023-01-09T07:43:53.627Z,7.52
2023-01-09T07:44:55.602Z,7.50
2023-01-09T07:45:54.521Z,7.50
2023-01-09T07:46:55.328Z,7.52
2023-01-09T07:47:46.234Z,7.52
2023-01-09T07:48:46.231Z,7.52
2023-01-09T07:49:46.278Z,7.52
2023-01-09T07:50:46.203Z,7.55
2023-01-09T07:51:46.201Z,7.53
2023-01-09T07:52:46.167Z,7.53
2023-01-09T07:53:46.161Z,7.52
2023-01-09T07:54:46.149Z,7.53
2023-01-09T07:55:46.139Z,7.52
2023-01-09T07:56:46.129Z,7.52
2023-01-09T07:57:46.119Z,7.50
2023-01-09T07:58:46.102Z,7.49
2023-01-09T07:59:46.088Z,7.50
2023-01-09T08:00:46.103Z,7.50
2023-01-09T08:01:46.216Z,7.52
2023-01-09T08:02:46.110Z,7.50
2023-01-09T08:03:46.046Z,7.52
2023-01-09T08:04:46.045Z,7.50
2023-01-09T08:05:46.099Z,7.50
2023-01-09T08:06:46.021Z,7.50
2023-01-09T08:07:46.013Z,7.48
2023-01-09T08:08:45.990Z,7.48
2023-01-09T08:09:45.991Z,7.48
2023-01-09T08:10:45.972Z,7.49
2023-01-09T08:11:45.972Z,7.50
2023-01-09T08:12:45.941Z,7.55
2023-01-09T08:13:45.971Z,7.60
2023-01-09T08:14:45.931Z,7.63
2023-01-09T08:15:45.956Z,7.67
2023-01-09T08:16:45.917Z,7.71
2023-01-09T08:17:45.896Z,7.75
2023-01-09T08:18:45.901Z,7.79
2023-01-09T08:19:45.861Z,7.80
2023-01-09T08:20:45.853Z,7.82
2023-01-09T08:21:45.863Z,7.85
2023-01-09T08:22:45.830Z,7.85
2023-01-09T08:23:45.840Z,7.86
2023-01-09T08:24:45.806Z,7.85
2023-01-09T08:25:45.803Z,7.85
2023-01-09T08:26:45.825Z,7.85
2023-01-09T08:27:45.774Z,7.83
2023-01-09T08:28:45.768Z,7.85
2023-01-09T08:29:45.764Z,7.85
2023-01-09T08:30:45.751Z,7.86
2023-01-09T08:31:45.790Z,7.87
2023-01-09T08:32:45.740Z,7.90
2023-01-09T08:33:45.709Z,7.90
2023-01-09T08:34:45.757Z,7.92
2023-01-09T08:35:45.797Z,7.97
2023-01-09T08:36:45.685Z,8.00
2023-01-09T08:37:45.653Z,8.02
2023-01-09T08:38:45.681Z,8.05
2023-01-09T08:39:47.421Z,8.04
2023-01-09T08:40:45.645Z,8.07
2023-01-09T08:41:45.632Z,8.10
2023-01-09T08:42:45.631Z,8.10
2023-01-09T08:43:45.584Z,8.10
2023-01-09T08:44:45.620Z,8.11
2023-01-09T08:45:45.587Z,8.11
2023-01-09T08:46:45.603Z,8.12
2023-01-09T08:47:45.591Z,8.12
2023-01-09T08:48:45.532Z,8.15
2023-01-09T08:49:45.552Z,8.15
2023-01-09T08:50:45.514Z,8.15
2023-01-09T08:51:45.548Z,8.16
2023-01-09T08:52:45.507Z,8.16
2023-01-09T08:53:45.496Z,8.16
2023-01-09T08:54:45.461Z,8.18
2023-01-09T08:55:45.456Z,8.18
2023-01-09T08:56:45.476Z,8.18
2023-01-09T08:57:45.438Z,8.15
2023-01-09T08:58:45.420Z,8.15
2023-01-09T08:59:45.443Z,8.16
2023-01-09T09:00:45.405Z,8.12
2023-01-09T09:01:45.446Z,8.11
2023-01-09T09:02:45.415Z,8.10
2023-01-09T09:03:45.378Z,8.10
2023-01-09T09:04:46.305Z,8.10
2023-01-09T09:05:46.824Z,8.07
2023-01-09T09:06:45.336Z,8.04
2023-01-09T09:07:45.327Z,8.02
2023-01-09T09:08:45.328Z,8.01
2023-01-09T09:09:45.303Z,8.01
2023-01-09T09:10:45.294Z,8.01
2023-01-09T09:11:45.367Z,8.00
2023-01-09T09:12:45.266Z,8.01
2023-01-09T09:13:45.272Z,7.98
2023-01-09T09:14:45.277Z,8.00
2023-01-09T09:15:45.264Z,8.02
2023-01-09T09:16:45.280Z,8.08
2023-01-09T09:17:45.213Z,8.11
2023-01-09T09:18:45.217Z,8.16
2023-01-09T09:19:45.205Z,8.19
2023-01-09T09:20:45.221Z,8.19
2023-01-09T09:21:45.211Z,8.20
2023-01-09T09:22:45.148Z,8.25
2023-01-09T09:23:45.138Z,8.25
2023-01-09T09:24:45.162Z,8.26
2023-01-09T09:25:45.122Z,8.25
2023-01-09T09:26:45.158Z,8.26
2023-01-09T09:27:45.102Z,8.26
2023-01-09T09:28:45.097Z,8.28
2023-01-09T09:29:45.088Z,8.29
2023-01-09T09:30:45.069Z,8.26
2023-01-09T09:31:45.095Z,8.28
2023-01-09T09:32:45.091Z,8.29
2023-01-09T09:33:45.022Z,8.33
2023-01-09T09:34:45.018Z,8.34
2023-01-09T09:35:45.031Z,8.36
2023-01-09T09:36:45.087Z,8.38
2023-01-09T09:37:44.989Z,8.41
2023-01-09T09:38:45.006Z,8.38
2023-01-09T09:39:44.963Z,8.38
2023-01-09T09:40:44.971Z,8.38
2023-01-09T09:41:44.994Z,8.40
2023-01-09T09:42:44.949Z,8.44
2023-01-09T09:43:44.930Z,8.47
2023-01-09T09:44:52.630Z,8.52
2023-01-09T09:45:45.909Z,8.59
2023-01-09T09:46:44.915Z,8.63
2023-01-09T09:47:52.105Z,8.68
2023-01-09T09:48:52.182Z,8.76
2023-01-09T09:49:53.133Z,8.77
2023-01-09T09:50:52.111Z,8.83
2023-01-09T09:51:52.139Z,8.87
2023-01-09T09:52:53.590Z,8.91
2023-01-09T09:53:52.050Z,8.92
2023-01-09T09:54:53.050Z,8.96
2023-01-09T09:55:44.815Z,9.02
2023-01-09T09:56:44.892Z,9.05
2023-01-09T09:57:45.028Z,9.10
2023-01-09T09:58:44.757Z,9.13
2023-01-09T09:59:44.749Z,9.15
2023-01-09T10:00:44.733Z,9.17
2023-01-09T10:01:44.727Z,9.17
2023-01-09T10:02:44.820Z,9.17
2023-01-09T10:03:44.734Z,9.17
2023-01-09T10:04:44.683Z,9.20
2023-01-09T10:05:44.691Z,9.18
2023-01-09T10:06:44.672Z,9.21
2023-01-09T10:07:44.689Z,9.21
2023-01-09T10:08:44.647Z,9.21
2023-01-09T10:09:44.621Z,9.23
2023-01-09T10:10:44.632Z,9.28
2023-01-09T10:11:44.636Z,9.33
2023-01-09T10:12:44.609Z,9.39
2023-01-09T10:13:44.591Z,9.42
2023-01-09T10:14:44.600Z,9.46
2023-01-09T10:15:44.624Z,9.47
2023-01-09T10:16:44.555Z,9.50
2023-01-09T10:17:44.552Z,9.51
2023-01-09T10:18:44.529Z,9.53
2023-01-09T10:19:44.524Z,9.58
2023-01-09T10:20:44.540Z,9.64
2023-01-09T10:21:44.501Z,9.74
2023-01-09T10:22:44.477Z,9.83
2023-01-09T10:23:44.490Z,9.89
2023-01-09T10:24:44.451Z,9.96
2023-01-09T10:25:44.627Z,10.01
2023-01-09T10:26:44.448Z,10.02
2023-01-09T10:27:44.438Z,10.05
2023-01-09T10:28:44.405Z,10.09
2023-01-09T10:29:44.413Z,10.14
2023-01-09T10:30:44.450Z,10.18
2023-01-09T10:31:44.464Z,10.20
2023-01-09T10:32:44.430Z,10.17
2023-01-09T10:33:44.368Z,10.18
2023-01-09T10:34:46.645Z,10.14
2023-01-09T10:35:47.973Z,10.15
2023-01-09T10:36:44.370Z,10.14
2023-01-09T10:37:44.316Z,10.11
2023-01-09T10:38:44.291Z,10.12
2023-01-09T10:39:44.275Z,10.15
2023-01-09T10:40:44.272Z,10.08
2023-01-09T10:41:44.307Z,9.96
2023-01-09T10:42:44.271Z,9.97
2023-01-09T10:43:44.284Z,10.01
2023-01-09T10:44:44.231Z,10.01
2023-01-09T10:45:44.233Z,10.01
2023-01-09T10:46:44.250Z,9.99
2023-01-09T10:47:44.263Z,9.96
2023-01-09T10:48:44.190Z,9.91
2023-01-09T10:49:44.163Z,9.90
2023-01-09T10:50:44.185Z,9.87
2023-01-09T10:51:44.164Z,9.84
2023-01-09T10:52:44.875Z,9.86
2023-01-09T10:53:44.148Z,9.89
2023-01-09T10:54:44.114Z,9.91
2023-01-09T10:55:44.135Z,9.91
2023-01-09T10:56:44.172Z,9.96
2023-01-09T10:57:44.153Z,9.96
2023-01-09T10:58:44.080Z,9.99
2023-01-09T10:59:44.066Z,9.99
2023-01-09T11:00:44.076Z,9.99
2023-01-09T11:01:44.034Z,9.99
2023-01-09T11:02:44.060Z,10.01
2023-01-09T11:03:44.047Z,10.04
2023-01-09T11:04:44.013Z,10.04
2023-01-09T11:05:43.997Z,10.07
2023-01-09T11:06:43.985Z,10.11
2023-01-09T11:07:43.978Z,10.07
2023-01-09T11:08:43.955Z,10.04
2023-01-09T11:09:43.943Z,9.99
2023-01-09T11:10:43.926Z,9.99
2023-01-09T11:11:43.961Z,10.01
2023-01-09T11:12:43.931Z,10.04
2023-01-09T11:13:43.907Z,10.02
2023-01-09T11:14:43.930Z,9.99
2023-01-09T11:15:43.903Z,9.97
2023-01-09T11:16:43.858Z,9.97
2023-01-09T11:17:43.883Z,9.93
2023-01-09T11:18:43.859Z,9.87
2023-01-09T11:19:43.825Z,9.87
2023-01-09T11:20:43.822Z,9.86
2023-01-09T11:21:43.817Z,9.84
2023-01-09T11:22:43.791Z,9.84
2023-01-09T11:23:43.793Z,9.83
2023-01-09T11:24:43.791Z,9.81
2023-01-09T11:25:43.750Z,9.81
2023-01-09T11:26:43.766Z,9.84
2023-01-09T11:27:43.801Z,9.87
2023-01-09T11:28:43.724Z,9.87
2023-01-09T11:29:43.750Z,9.86
2023-01-09T11:30:43.704Z,9.89
2023-01-09T11:31:43.750Z,9.90
2023-01-09T11:32:43.744Z,9.91
2023-01-09T11:33:43.667Z,9.94
2023-01-09T11:34:44.987Z,9.94
2023-01-09T11:35:43.658Z,9.93
2023-01-09T11:36:43.664Z,9.90
2023-01-09T11:37:43.629Z,9.86
2023-01-09T11:38:43.659Z,9.83
2023-01-09T11:39:43.588Z,9.81
2023-01-09T11:40:43.637Z,9.83
2023-01-09T11:41:43.578Z,9.81
2023-01-09T11:42:43.546Z,9.79
2023-01-09T11:43:43.630Z,9.81
2023-01-09T11:44:43.543Z,9.83
2023-01-09T11:45:50.237Z,9.75
2023-01-09T11:46:44.565Z,9.69
2023-01-09T11:47:43.536Z,9.69
2023-01-09T11:48:43.487Z,9.69
2023-01-09T11:49:43.483Z,9.71
2023-01-09T11:50:43.463Z,9.71
2023-01-09T11:51:43.476Z,9.71
2023-01-09T11:52:43.439Z,9.68
2023-01-09T11:53:50.686Z,9.66
2023-01-09T11:54:50.671Z,9.65
2023-01-09T11:55:51.705Z,9.68
2023-01-09T11:56:43.401Z,9.66
2023-01-09T11:57:43.383Z,9.65
2023-01-09T11:58:43.438Z,9.69
2023-01-09T11:59:43.371Z,9.64
2023-01-09T12:00:43.363Z,9.60
2023-01-09T12:01:43.374Z,9.58
2023-01-09T12:02:43.405Z,9.57
2023-01-09T12:03:43.398Z,9.57
2023-01-09T12:04:43.342Z,9.51
2023-01-09T12:05:43.309Z,9.46
2023-01-09T12:06:43.314Z,9.38
2023-01-09T12:07:43.284Z,9.32
2023-01-09T12:08:43.272Z,9.29
2023-01-09T12:09:43.249Z,9.29
2023-01-09T12:10:43.256Z,9.28
2023-01-09T12:11:43.241Z,9.32
2023-01-09T12:12:43.226Z,9.31
2023-01-09T12:13:43.211Z,9.32
2023-01-09T12:14:43.232Z,9.35
2023-01-09T12:15:43.203Z,9.40
2023-01-09T12:16:43.231Z,9.46
2023-01-09T12:17:43.192Z,9.42
2023-01-09T12:18:43.164Z,9.42
2023-01-09T12:19:43.154Z,9.47
2023-01-09T12:20:43.636Z,9.51
2023-01-09T12:21:43.133Z,9.56
2023-01-09T12:22:43.128Z,9.57
2023-01-09T12:23:43.086Z,9.58
2023-01-09T12:24:43.083Z,9.65
2023-01-09T12:25:43.067Z,9.64
2023-01-09T12:26:43.080Z,9.65
2023-01-09T12:27:43.833Z,9.68
2023-01-09T12:28:43.025Z,9.72
2023-01-09T12:29:43.016Z,9.75
2023-01-09T12:30:43.013Z,9.75
2023-01-09T12:31:43.056Z,9.74
2023-01-09T12:32:43.017Z,9.61
2023-01-09T12:33:42.995Z,9.48
2023-01-09T12:34:42.968Z,9.42
2023-01-09T12:35:42.964Z,9.31
2023-01-09T12:36:42.981Z,9.20
2023-01-09T12:37:42.944Z,9.14
2023-01-09T12:38:42.939Z,9.05
2023-01-09T12:39:42.931Z,8.99
2023-01-09T12:40:42.896Z,8.99
2023-01-09T12:41:42.953Z,8.99
2023-01-09T12:42:42.923Z,9.01
2023-01-09T12:43:42.857Z,8.98
2023-01-09T12:44:42.858Z,8.92
2023-01-09T12:45:42.898Z,8.94
2023-01-09T12:46:42.863Z,8.92
2023-01-09T12:47:45.169Z,8.95
2023-01-09T12:48:42.806Z,8.99
2023-01-09T12:49:42.798Z,9.02
2023-01-09T12:50:42.815Z,8.99
2023-01-09T12:51:42.795Z,8.98
2023-01-09T12:52:42.843Z,8.99
2023-01-09T12:53:42.766Z,9.01
2023-01-09T12:54:42.749Z,9.04
2023-01-09T12:55:42.728Z,9.10
2023-01-09T12:56:42.740Z,9.11
2023-01-09T12:57:42.749Z,9.13
2023-01-09T12:58:42.721Z,9.11
2023-01-09T12:59:42.690Z,9.14
2023-01-09T13:00:42.713Z,9.14
2023-01-09T13:01:42.724Z,9.11
2023-01-09T13:02:42.668Z,9.08
2023-01-09T13:03:42.650Z,9.02
2023-01-09T13:04:42.695Z,9.01
2023-01-09T13:05:42.694Z,9.01
2023-01-09T13:06:42.639Z,9.05
2023-01-09T13:07:42.635Z,9.01
2023-01-09T13:08:42.597Z,8.98
2023-01-09T13:09:42.643Z,9.01
2023-01-09T13:10:42.563Z,9.01
2023-01-09T13:11:42.589Z,9.04
2023-01-09T13:12:42.560Z,9.10
2023-01-09T13:13:42.533Z,9.11
2023-01-09T13:14:42.569Z,9.11
2023-01-09T13:15:42.512Z,9.08
2023-01-09T13:16:42.521Z,9.15
2023-01-09T13:17:42.527Z,9.29
2023-01-09T13:18:42.547Z,9.40